Time;durP1;ratioP1;P1;durP2;ratioP2;P2;SDS_P1;SDS_P2;PMS_P1;PMS_P2;Temp;Humidity;BMP_temperature;BMP_pressure;BME280_temperature;BME280_humidity;BME280_pressure;Samples;Min_cycle;Max_cycle;Signal;HPM_P1;HPM_P2
2023/05/02 00:04:44;;;;;;;3.72;3.26;;;;;;;12.89;76.85;99305.91;7421827;39;20250;31
2023/05/02 00:10:16;;;;;;;3.40;2.90;;;;;;;12.96;76.88;99296.03;7432927;39;20286;31
2023/05/02 00:20:52;;;;;;;3.25;2.80;;;;;;;12.63;77.32;99311.62;7397638;39;21175;31
2023/05/02 00:26:25;;;;;;;4.83;3.60;;;;;;;12.68;77.64;99312.97;7393558;39;20431;31
2023/05/02 00:31:45;;;;;;;6.60;3.90;;;;;;;12.46;77.97;99328.94;7399391;39;20229;31
2023/05/02 00:37:17;;;;;;;5.47;3.80;;;;;;;12.39;78.41;99327.09;7401668;39;20371;31
2023/05/02 00:42:50;;;;;;;6.20;4.05;;;;;;;12.47;77.94;99322.50;7422435;39;20328;31
2023/05/02 00:48:22;;;;;;;4.95;3.20;;;;;;;12.23;78.81;99324.47;7381161;39;20533;31
2023/05/02 00:53:55;;;;;;;3.60;3.30;;;;;;;12.09;80.13;99318.78;7379374;39;20418;31
2023/05/02 00:59:26;;;;;;;3.60;3.30;;;;;;;11.92;79.48;99314.44;7381920;39;20311;31
2023/05/02 01:04:58;;;;;;;6.10;4.30;;;;;;;11.91;78.95;99314.59;7386636;39;20239;31
2023/05/02 01:10:34;;;;;;;4.63;3.50;;;;;;;11.98;78.61;99312.91;7365860;39;20336;31
2023/05/02 01:16:22;;;;;;;3.77;3.13;;;;;;;12.17;78.32;99324.16;7313045;39;20252;31
2023/05/02 01:27:01;;;;;;;3.78;2.80;;;;;;;12.31;76.93;99333.41;7304007;39;20499;31
2023/05/02 01:32:32;;;;;;;4.30;2.80;;;;;;;12.28;76.61;99327.50;7357857;39;20267;31
2023/05/02 01:43:08;;;;;;;4.20;3.20;;;;;;;12.24;76.04;99348.62;7442170;39;21158;31
2023/05/02 01:53:46;;;;;;;4.53;3.50;;;;;;;12.15;75.94;99349.66;7395046;39;21490;31
2023/05/02 02:04:21;;;;;;;3.85;3.45;;;;;;;12.11;76.30;99351.84;7434503;39;21026;31
2023/05/02 02:09:54;;;;;;;4.37;4.00;;;;;;;12.06;75.70;99354.25;7511798;38;21610;31
2023/05/02 02:15:32;;;;;;;5.25;4.00;;;;;;;12.09;75.72;99367.41;7462299;39;20253;31
2023/05/02 02:21:04;;;;;;;4.53;4.13;;;;;;;12.08;75.69;99362.16;7462477;39;20339;31
2023/05/02 02:26:51;;;;;;;5.10;4.60;;;;;;;12.08;75.13;99378.38;7438128;39;20273;31
2023/05/02 02:37:28;;;;;;;7.27;5.50;;;;;;;12.06;75.26;99380.41;7516073;38;20269;31
2023/05/02 02:48:15;;;;;;;6.70;6.00;;;;;;;12.25;75.45;99385.44;7495170;38;20708;31
2023/05/02 02:53:51;;;;;;;6.70;5.90;;;;;;;12.30;75.82;99385.75;7509171;38;21264;31
2023/05/02 02:59:24;;;;;;;7.40;6.65;;;;;;;12.35;75.66;99396.06;7416244;39;20333;31
2023/05/02 03:10:02;;;;;;;10.40;8.20;;;;;;;12.37;75.62;99400.28;7257269;39;21543;31
2023/05/02 03:15:43;;;;;;;9.20;8.20;;;;;;;12.30;75.55;99412.78;7392520;39;20238;31
2023/05/02 03:21:03;;;;;;;14.25;9.70;;;;;;;12.28;75.25;99422.94;7421194;39;20254;31
2023/05/02 03:31:39;;;;;;;11.50;10.30;;;;;;;12.14;75.77;99431.75;7433411;39;20269;31
2023/05/02 03:42:00;;;;;;;10.90;9.80;;;;;;;11.99;76.24;99441.53;7487695;38;21144;31
2023/05/02 03:52:36;;;;;;;12.60;11.30;;;;;;;12.05;76.47;99441.72;7491883;38;20272;31
2023/05/02 03:58:08;;;;;;;15.77;14.13;;;;;;;12.08;76.80;99449.47;7467987;39;20262;31
2023/05/02 04:03:43;;;;;;;17.70;15.63;;;;;;;12.11;77.66;99459.94;7489024;39;21143;31
2023/05/02 04:09:17;;;;;;;18.20;15.17;;;;;;;12.02;77.29;99463.66;7488880;38;21647;31
2023/05/02 04:14:33;;;;;;;18.97;14.00;;;;;;;12.16;76.98;99467.53;7488551;38;21822;31
2023/05/02 04:20:06;;;;;;;17.57;14.33;;;;;;;12.28;76.80;99476.16;7440910;39;20262;31
2023/05/02 04:25:39;;;;;;;17.80;15.10;;;;;;;12.32;76.42;99486.44;7442689;39;20325;31
2023/05/02 04:30:59;;;;;;;15.93;14.23;;;;;;;12.24;77.01;99489.16;7443627;39;20333;31
2023/05/02 04:36:19;;;;;;;19.10;16.70;;;;;;;12.24;77.82;99502.69;7442222;39;20288;31
2023/05/02 04:41:50;;;;;;;20.95;18.35;;;;;;;12.28;77.51;99508.59;7476582;38;20269;31
2023/05/02 04:52:11;;;;;;;22.93;19.57;;;;;;;12.31;77.25;99519.91;7417750;39;21242;31
2023/05/02 04:57:47;;;;;;;23.60;20.10;;;;;;;12.32;78.01;99526.16;7441389;39;20256;31
2023/05/02 05:03:07;;;;;;;22.87;19.73;;;;;;;12.13;78.38;99528.16;7444118;39;20254;31
2023/05/02 05:08:27;;;;;;;23.65;20.30;;;;;;;12.19;78.24;99542.88;7442526;39;20243;31
2023/05/02 05:13:59;;;;;;;24.00;21.00;;;;;;;12.31;77.92;99552.31;7441736;39;20430;31
2023/05/02 05:19:19;;;;;;;23.03;19.97;;;;;;;12.30;78.20;99552.47;7460942;38;20299;31
2023/05/02 05:24:51;;;;;;;26.75;20.80;;;;;;;12.14;79.18;99556.88;7395637;39;20351;31
2023/05/02 05:30:25;;;;;;;27.63;22.97;;;;;;;12.19;78.57;99569.91;7440443;39;20446;31
2023/05/02 05:35:43;;;;;;;28.20;22.20;;;;;;;12.14;79.30;99575.81;7436087;39;20254;31
2023/05/02 05:40:59;;;;;;;29.35;22.80;;;;;;;12.11;79.43;99568.00;7420653;39;20250;31
2023/05/02 05:46:33;;;;;;;30.15;24.05;;;;;;;12.15;79.37;99582.87;7393125;39;20567;31
2023/05/02 05:51:51;;;;;;;29.30;22.83;;;;;;;12.28;78.70;99586.97;7420978;39;20321;31
2023/05/02 05:57:08;;;;;;;29.93;24.43;;;;;;;12.32;78.63;99594.56;7397969;39;20334;31
2023/05/02 06:02:44;;;;;;;32.03;25.17;;;;;;;12.38;77.83;99607.41;7416940;38;20232;31
2023/05/02 06:08:16;;;;;;;31.13;25.40;;;;;;;12.48;78.61;99618.06;7470893;39;20241;31
2023/05/02 06:13:34;;;;;;;31.77;23.63;;;;;;;12.49;78.57;99617.88;7467884;38;20335;31
2023/05/02 06:19:07;;;;;;;42.37;30.53;;;;;;;12.32;79.68;99620.75;7488688;38;21168;31
2023/05/02 06:24:26;;;;;;;34.13;27.13;;;;;;;12.48;78.50;99647.78;7486541;38;20261;31
2023/05/02 06:29:47;;;;;;;35.30;27.70;;;;;;;12.54;78.57;99650.69;7491584;39;21007;31
2023/05/02 06:35:21;;;;;;;38.13;30.30;;;;;;;12.58;79.18;99662.84;7446696;39;21541;31
2023/05/02 06:40:44;;;;;;;37.00;28.33;;;;;;;12.68;78.12;99665.37;7469182;38;21918;31
2023/05/02 06:46:14;;;;;;;35.27;28.23;;;;;;;12.86;77.67;99671.47;7460728;39;20237;31
2023/05/02 06:51:45;;;;;;;34.70;26.63;;;;;;;13.07;77.08;99673.66;7420408;39;20242;31
2023/05/02 06:57:06;;;;;;;34.23;25.10;;;;;;;13.30;76.41;99682.78;7377007;39;20266;31
2023/05/02 07:02:23;;;;;;;30.40;24.80;;;;;;;13.34;76.18;99686.81;7344531;39;20270;31
2023/05/02 07:07:59;;;;;;;33.80;25.90;;;;;;;13.52;75.72;99692.88;7392119;39;21100;31
2023/05/02 07:13:21;;;;;;;32.10;25.83;;;;;;;13.71;74.86;99688.09;7429044;39;20238;31
2023/05/02 07:18:41;;;;;;;29.70;24.27;;;;;;;13.85;74.32;99690.06;7397640;39;20261;31
2023/05/02 07:24:15;;;;;;;28.63;23.07;;;;;;;13.85;73.97;99687.38;7418593;39;21184;31
2023/05/02 07:29:33;;;;;;;32.40;24.13;;;;;;;13.83;73.32;99687.53;7419518;39;20242;31
2023/05/02 07:35:08;;;;;;;31.47;24.90;;;;;;;14.20;73.55;99695.00;7448482;39;21214;31
2023/05/02 07:40:45;;;;;;;33.93;25.87;;;;;;;14.56;72.34;99695.31;7393835;39;20263;31
2023/05/02 07:46:18;;;;;;;28.70;24.80;;;;;;;14.60;72.15;99707.50;7402903;39;20243;31
2023/05/02 07:51:55;;;;;;;30.30;23.80;;;;;;;14.67;71.55;99703.03;7417866;39;20239;31
2023/05/02 07:57:28;;;;;;;29.60;24.47;;;;;;;14.75;72.41;99710.25;7460564;38;20339;31
2023/05/02 08:07:50;;;;;;;30.33;24.07;;;;;;;15.15;71.54;99712.66;7511193;38;20281;31
2023/05/02 08:13:22;;;;;;;29.07;24.40;;;;;;;15.58;70.19;99704.78;7421972;39;20314;31
2023/05/02 08:18:41;;;;;;;32.67;25.33;;;;;;;15.70;68.55;99719.63;7461114;39;20242;31
2023/05/02 08:24:13;;;;;;;26.47;22.40;;;;;;;15.52;68.76;99711.00;7439051;39;20243;31
2023/05/02 08:29:49;;;;;;;26.80;21.83;;;;;;;15.55;67.87;99718.75;7384182;39;21672;31
2023/05/02 08:35:21;;;;;;;26.85;21.75;;;;;;;15.52;69.17;99720.00;7440567;39;20257;31
2023/05/02 08:40:41;;;;;;;25.07;21.17;;;;;;;15.82;67.97;99729.00;7454744;39;20337;31
2023/05/02 08:46:17;;;;;;;26.37;21.23;;;;;;;16.13;67.77;99728.81;7452123;39;20305;31
2023/05/02 08:51:50;;;;;;;26.70;20.53;;;;;;;16.30;66.73;99727.56;7487452;39;20249;31
2023/05/02 08:57:22;;;;;;;25.73;20.20;;;;;;;16.19;63.94;99737.03;7419997;39;20246;31
2023/05/02 09:03:04;;;;;;;24.67;20.10;;;;;;;16.49;65.50;99740.56;7443525;39;20255;31
2023/05/02 09:08:37;;;;;;;21.15;18.70;;;;;;;16.40;65.05;99746.31;7397523;39;20259;31
2023/05/02 09:14:02;;;;;;;21.80;18.10;;;;;;;16.68;64.43;99745.41;7440439;39;21094;31
2023/05/02 09:19:39;;;;;;;20.80;18.52;;;;;;;16.92;63.76;99748.81;7421892;39;20262;31
2023/05/02 09:25:14;;;;;;;20.30;16.85;;;;;;;16.86;63.97;99749.56;7421546;39;20248;31
2023/05/02 09:30:31;;;;;;;20.00;17.70;;;;;;;16.58;64.99;99757.66;7419845;39;20239;31
2023/05/02 09:36:09;;;;;;;18.90;16.90;;;;;;;16.57;63.77;99758.66;7447638;38;21393;31
2023/05/02 09:46:54;;;;;;;20.23;17.17;;;;;;;16.48;65.13;99752.47;7512277;38;20872;31
2023/05/02 09:57:31;;;;;;;17.00;15.17;;;;;;;17.08;60.71;99767.63;7509242;38;20285;31
2023/05/02 10:08:25;;;;;;;18.95;14.90;;;;;;;17.22;62.53;99774.03;7493129;38;21389;31
2023/05/02 10:14:01;;;;;;;17.20;15.30;;;;;;;17.08;62.01;99779.34;7318618;38;20244;31
2023/05/02 10:19:38;;;;;;;20.67;16.37;;;;;;;17.13;62.40;99786.94;7508499;38;21301;31
2023/05/02 10:25:13;;;;;;;17.87;15.50;;;;;;;17.05;61.87;99789.81;7489084;38;21231;31
2023/05/02 10:30:46;;;;;;;14.60;12.33;;;;;;;16.97;62.67;99789.94;7416224;39;20242;31
2023/05/02 10:41:20;;;;;;;14.53;11.53;;;;;;;16.78;63.31;99791.38;7459319;39;20332;31
2023/05/02 10:46:56;;;;;;;15.87;12.77;;;;;;;16.64;63.01;99789.53;7480954;38;20234;31
2023/05/02 10:52:40;;;;;;;12.85;11.25;;;;;;;16.60;62.21;99790.97;7506960;38;22028;31
2023/05/02 10:58:37;;;;;;;15.17;12.87;;;;;;;16.39;62.82;99799.03;7486723;38;20383;31
2023/05/02 11:04:11;;;;;;;13.05;10.93;;;;;;;16.20;64.06;99795.00;7437385;39;20258;31
2023/05/02 11:09:47;;;;;;;12.73;10.23;;;;;;;16.22;63.71;99791.06;7420612;39;20239;31
2023/05/02 11:15:20;;;;;;;13.03;9.10;;;;;;;16.23;63.57;99784.59;7439994;39;20247;31
2023/05/02 11:21:08;;;;;;;9.35;7.75;;;;;;;16.40;62.88;99777.09;7355022;39;20363;31
2023/05/02 11:32:07;;;;;;;9.67;8.27;;;;;;;16.39;61.22;99789.00;7437799;39;20295;31
2023/05/02 11:42:44;;;;;;;10.77;8.17;;;;;;;16.23;62.12;99784.59;7440110;39;20361;31
2023/05/02 11:53:22;;;;;;;9.10;7.33;;;;;;;16.25;59.60;99781.69;7457466;38;21022;31
2023/05/02 11:58:56;;;;;;;8.75;6.60;;;;;;;16.46;60.62;99778.19;7419952;39;20270;31
2023/05/02 12:04:20;;;;;;;9.10;7.00;;;;;;;16.67;60.74;99786.47;7443921;39;21242;31
2023/05/02 12:09:35;;;;;;;9.14;6.52;;;;;;;17.42;58.59;99778.63;7442489;39;20244;31
2023/05/02 12:15:09;;;;;;;8.30;7.20;;;;;;;18.05;55.55;99782.28;7454534;39;20241;31
2023/05/02 12:20:41;;;;;;;7.23;6.43;;;;;;;18.35;56.68;99777.41;7458775;39;20258;31
2023/05/02 12:26:13;;;;;;;7.85;6.65;;;;;;;18.74;54.52;99777.59;7374448;39;20251;31
2023/05/02 12:31:46;;;;;;;7.53;6.10;;;;;;;19.19;53.66;99775.19;7397382;39;20254;31
2023/05/02 12:37:21;;;;;;;8.95;6.30;;;;;;;19.22;52.36;99774.78;7370946;39;20327;31
2023/05/02 12:42:39;;;;;;;7.80;5.40;;;;;;;18.84;54.09;99771.75;7423911;39;20245;31
2023/05/02 12:48:12;;;;;;;4.57;4.17;;;;;;;19.20;51.14;99775.00;7463165;39;20351;31
2023/05/02 12:53:53;;;;;;;4.30;3.90;;;;;;;19.43;50.72;99777.38;7462588;39;20250;31
2023/05/02 12:59:25;;;;;;;6.07;4.00;;;;;;;19.08;53.28;99782.13;7441176;39;20333;31
2023/05/02 13:04:59;;;;;;;5.55;3.85;;;;;;;19.44;50.98;99781.75;7428519;39;20246;31
2023/05/02 13:10:17;;;;;;;4.50;3.70;;;;;;;19.70;51.18;99778.22;7401423;39;20271;31
2023/05/02 13:15:35;;;;;;;6.17;3.97;;;;;;;19.98;50.96;99770.59;7406568;39;20243;31
2023/05/02 13:21:05;;;;;;;4.70;3.90;;;;;;;19.90;49.55;99761.75;7396217;39;20314;31
2023/05/02 13:26:26;;;;;;;3.20;2.50;;;;;;;19.87;45.85;99773.16;7368135;39;20286;31
2023/05/02 13:37:04;;;;;;;5.37;4.30;;;;;;;20.10;45.52;99766.13;7408337;39;20261;31
2023/05/02 13:47:43;;;;;;;7.67;3.37;;;;;;;20.30;44.88;99768.03;7418487;39;20278;31
2023/05/02 13:53:16;;;;;;;8.80;3.47;;;;;;;20.33;46.10;99762.09;7460941;39;20337;31
2023/05/02 13:58:34;;;;;;;4.35;3.00;;;;;;;20.46;45.71;99765.66;7405964;39;20246;31
2023/05/02 14:09:26;;;;;;;3.40;3.10;;;;;;;19.97;48.07;99779.00;7419083;39;20258;31
2023/05/02 14:14:44;;;;;;;3.47;3.00;;;;;;;19.69;49.58;99792.94;7433371;39;20249;31
2023/05/02 14:25:21;;;;;;;3.37;2.90;;;;;;;19.02;50.28;99782.09;7434339;39;20304;31
2023/05/02 14:30:42;;;;;;;3.43;2.90;;;;;;;18.87;51.26;99780.37;7422365;39;20301;31
2023/05/02 14:35:59;;;;;;;4.17;2.57;;;;;;;18.86;51.28;99780.59;7397778;39;20234;31
2023/05/02 14:41:35;;;;;;;2.95;2.50;;;;;;;19.26;48.63;99770.59;7469196;39;21843;31
2023/05/02 14:47:09;;;;;;;2.97;2.30;;;;;;;19.03;48.25;99772.87;7418735;39;20313;31
2023/05/02 14:57:49;;;;;;;2.70;2.30;;;;;;;18.95;49.16;99768.44;7418755;39;20286;31
2023/05/02 15:03:09;;;;;;;4.67;2.90;;;;;;;18.82;50.80;99773.88;7421103;39;20251;31
2023/05/02 15:08:30;;;;;;;3.80;2.25;;;;;;;18.67;47.89;99776.75;7388625;39;20257;31
2023/05/02 15:14:04;;;;;;;3.43;2.33;;;;;;;18.62;47.35;99773.78;7397021;39;20336;31
2023/05/02 15:19:40;;;;;;;2.57;2.33;;;;;;;19.02;45.75;99774.75;7379188;39;20325;31
2023/05/02 15:24:57;;;;;;;3.60;2.57;;;;;;;18.96;47.81;99780.19;7342493;39;20366;31
2023/05/02 15:30:30;;;;;;;4.60;2.70;;;;;;;19.05;49.46;99788.00;7420408;39;20238;31
2023/05/02 15:36:08;;;;;;;3.10;2.80;;;;;;;19.03;49.63;99783.78;7401432;39;20357;31
2023/05/02 15:41:40;;;;;;;4.37;3.30;;;;;;;19.24;48.46;99789.09;7395533;39;20247;31
2023/05/02 15:47:14;;;;;;;3.80;2.80;;;;;;;18.94;48.43;99796.81;7405478;39;20291;31
2023/05/02 15:57:51;;;;;;;3.00;2.70;;;;;;;18.33;48.94;99801.34;7438108;39;20339;31
2023/05/02 16:03:24;;;;;;;3.07;2.50;;;;;;;18.35;48.82;99801.97;7359060;39;20249;31
2023/05/02 16:08:41;;;;;;;3.95;3.00;;;;;;;18.17;49.96;99797.03;7384661;39;20238;31
2023/05/02 16:14:13;;;;;;;4.57;2.77;;;;;;;18.16;51.26;99795.37;7440075;39;20430;31
2023/05/02 16:19:50;;;;;;;3.97;2.90;;;;;;;17.98;50.90;99797.78;7396108;39;20406;31
2023/05/02 16:25:10;;;;;;;3.35;3.00;;;;;;;17.88;52.00;99800.84;7533161;38;21877;31
2023/05/02 16:30:30;;;;;;;3.63;3.00;;;;;;;17.84;52.95;99806.91;7530046;38;21473;31
2023/05/02 16:36:04;;;;;;;3.20;2.60;;;;;;;17.73;53.29;99811.00;7463122;39;20319;31
2023/05/02 16:41:36;;;;;;;4.57;2.90;;;;;;;17.83;53.49;99811.50;7466143;39;20318;31
2023/05/02 16:47:08;;;;;;;3.50;2.80;;;;;;;17.85;53.38;99801.25;7396064;39;20253;31
2023/05/02 16:52:44;;;;;;;3.00;2.70;;;;;;;17.84;53.50;99806.91;7405730;39;20250;31
2023/05/02 17:03:23;;;;;;;9.10;3.20;;;;;;;17.59;53.37;99813.84;7416641;39;20358;31
2023/05/02 17:08:56;;;;;;;3.83;3.10;;;;;;;17.50;54.00;99815.81;7436712;38;20271;31
2023/05/02 17:14:14;;;;;;;3.63;3.20;;;;;;;17.48;54.79;99818.72;7459699;39;20262;31
2023/05/02 17:19:31;;;;;;;5.90;3.57;;;;;;;17.34;54.20;99822.38;7462635;39;21081;31
2023/05/02 17:24:52;;;;;;;3.60;3.23;;;;;;;17.27;55.12;99832.38;7454744;39;20239;31
2023/05/02 17:30:24;;;;;;;5.10;3.55;;;;;;;17.16;55.15;99835.59;7418250;39;20368;31
2023/05/02 17:35:56;;;;;;;4.63;3.67;;;;;;;17.07;55.53;99829.41;7258427;39;20280;31
2023/05/02 17:41:14;;;;;;;3.80;3.40;;;;;;;17.02;56.40;99828.34;7439700;39;20269;31
2023/05/02 17:46:50;;;;;;;4.20;3.40;;;;;;;16.88;55.63;99832.78;7480352;38;20264;31
2023/05/02 17:57:14;;;;;;;4.50;3.50;;;;;;;16.77;55.37;99846.03;7509864;38;20287;31
2023/05/02 18:07:52;;;;;;;4.07;2.80;;;;;;;16.49;54.82;99835.81;7400312;39;21058;31
2023/05/02 18:13:12;;;;;;;5.20;3.00;;;;;;;16.40;55.01;99839.66;7396191;39;20256;31
2023/05/02 18:18:29;;;;;;;4.16;2.82;;;;;;;16.29;55.67;99852.88;7410180;39;20348;31
2023/05/02 18:24:06;;;;;;;6.43;2.90;;;;;;;16.19;55.44;99864.06;7483203;38;20248;31
2023/05/02 18:29:37;;;;;;;4.95;2.80;;;;;;;16.12;55.63;99868.53;7460467;39;21488;31
2023/05/02 18:34:57;;;;;;;5.05;2.70;;;;;;;15.95;55.91;99873.28;7439110;39;20400;31
2023/05/02 18:40:31;;;;;;;3.53;2.80;;;;;;;15.80;55.72;99885.19;7464695;39;20457;31
2023/05/02 18:46:03;;;;;;;4.90;3.13;;;;;;;15.74;56.29;99894.91;7438983;39;20252;31
2023/05/02 18:51:21;;;;;;;5.10;3.13;;;;;;;15.72;56.05;99895.06;7485672;38;20776;31
2023/05/02 18:56:56;;;;;;;4.20;2.90;;;;;;;15.66;56.61;99912.13;7418293;39;20258;31
2023/05/02 19:02:16;;;;;;;5.20;3.15;;;;;;;15.63;56.95;99926.06;7416598;39;20432;31
2023/05/02 19:07:48;;;;;;;3.70;3.10;;;;;;;15.56;57.76;99933.25;7421027;39;20265;31
2023/05/02 19:13:20;;;;;;;3.90;3.35;;;;;;;15.43;58.17;99943.00;7391081;39;20270;31
2023/05/02 19:18:37;;;;;;;4.90;3.60;;;;;;;15.36;58.22;99959.16;7417555;39;20338;31
2023/05/02 19:23:55;;;;;;;5.90;3.70;;;;;;;15.28;58.03;99953.75;7353941;39;20251;31
2023/05/02 19:29:26;;;;;;;3.95;3.40;;;;;;;15.23;59.00;99965.16;7399308;39;20263;31
2023/05/02 19:34:58;;;;;;;5.10;3.80;;;;;;;15.13;58.57;99980.00;7444504;39;20440;31
2023/05/02 19:40:30;;;;;;;3.87;3.47;;;;;;;14.91;59.33;99992.47;7412537;39;20353;31
2023/05/02 19:46:03;;;;;;;4.77;3.77;;;;;;;14.78;59.33;100003.03;7438463;39;20263;31
2023/05/02 19:51:35;;;;;;;3.93;3.53;;;;;;;14.70;58.64;100005.78;7417855;39;20279;31
2023/05/02 20:02:12;;;;;;;5.43;3.87;;;;;;;14.55;59.35;100018.34;7445697;38;21554;31
2023/05/02 20:12:37;;;;;;;4.23;3.83;;;;;;;14.33;59.32;100034.25;7506986;38;20693;31
2023/05/02 20:23:17;;;;;;;5.10;4.60;;;;;;;14.20;59.42;100031.22;7516467;38;20369;31
2023/05/02 20:28:52;;;;;;;5.20;4.40;;;;;;;14.16;59.61;100024.44;7467348;39;21229;31
2023/05/02 20:34:10;;;;;;;4.85;4.30;;;;;;;14.12;59.98;100025.78;7465634;39;21603;31
2023/05/02 20:39:43;;;;;;;7.17;4.73;;;;;;;13.91;59.47;100036.25;7458374;39;20519;31
2023/05/02 20:50:17;;;;;;;7.03;5.03;;;;;;;13.62;59.19;100034.00;7439392;39;20786;31
2023/05/02 20:55:48;;;;;;;6.77;5.03;;;;;;;13.63;60.29;100038.41;7370733;39;20262;31
2023/05/02 21:01:20;;;;;;;5.80;4.90;;;;;;;13.62;60.57;100041.28;7361382;39;20357;31
2023/05/02 21:06:38;;;;;;;6.53;4.80;;;;;;;13.62;60.30;100044.00;7354014;39;20338;31
2023/05/02 21:12:14;;;;;;;7.38;4.96;;;;;;;13.50;59.63;100052.44;7376549;39;20390;31
2023/05/02 21:17:31;;;;;;;6.77;4.87;;;;;;;13.38;60.07;100053.72;7375963;39;20255;31
2023/05/02 21:23:05;;;;;;;5.95;5.10;;;;;;;13.27;58.98;100059.44;7391057;39;20370;31
2023/05/02 21:28:39;;;;;;;6.30;5.10;;;;;;;13.13;60.08;100068.19;7421591;39;20441;31
2023/05/02 21:33:56;;;;;;;6.95;4.80;;;;;;;13.14;60.08;100060.91;7425413;39;20249;31
2023/05/02 21:39:17;;;;;;;6.55;4.95;;;;;;;13.15;60.30;100074.28;7410773;39;20424;31
2023/05/02 21:44:49;;;;;;;6.23;5.00;;;;;;;13.05;59.47;100068.97;7405400;39;20433;31
2023/05/02 21:55:11;;;;;;;4.40;4.00;;;;;;;13.03;59.33;100078.25;7431035;39;20258;31
2023/05/02 22:00:39;;;;;;;5.05;3.90;;;;;;;12.85;59.22;100069.34;7472575;38;20365;31
2023/05/02 22:11:15;;;;;;;6.70;4.00;;;;;;;12.61;60.38;100078.16;7489195;39;20266;31
2023/05/02 22:22:00;;;;;;;4.70;3.83;;;;;;;12.53;60.31;100078.94;7513146;38;20268;31
2023/05/02 22:27:14;;;;;;;5.15;3.55;;;;;;;12.47;60.81;100084.97;7419283;39;20246;31
2023/05/02 22:32:46;;;;;;;5.90;3.73;;;;;;;12.27;61.51;100099.69;7377946;39;21265;31
2023/05/02 22:38:19;;;;;;;5.27;3.83;;;;;;;12.23;61.37;100092.03;7356515;39;20322;31
2023/05/02 22:43:54;;;;;;;5.85;3.75;;;;;;;12.18;61.64;100098.75;7373314;39;20311;31
2023/05/02 22:49:29;;;;;;;5.47;4.17;;;;;;;12.11;61.69;100100.34;7420721;39;20409;31
2023/05/02 22:55:07;;;;;;;6.15;4.00;;;;;;;11.97;62.37;100100.91;7460927;39;20332;31
2023/05/02 23:00:41;;;;;;;9.23;4.13;;;;;;;12.03;61.91;100099.44;7410823;39;20354;31
2023/05/02 23:06:01;;;;;;;5.45;4.10;;;;;;;12.07;61.29;100100.81;7396877;39;20247;31
2023/05/02 23:11:37;;;;;;;5.67;4.10;;;;;;;11.95;61.54;100105.59;7398199;39;21863;31
2023/05/02 23:17:09;;;;;;;5.07;3.90;;;;;;;11.85;61.88;100101.28;7312027;39;20240;31
2023/05/02 23:22:26;;;;;;;6.87;4.50;;;;;;;11.77;62.30;100103.88;7360095;39;20319;31
2023/05/02 23:27:59;;;;;;;6.95;4.55;;;;;;;11.62;62.62;100101.69;7341686;39;21281;31
2023/05/02 23:33:34;;;;;;;9.55;5.15;;;;;;;11.48;63.46;100087.84;7401411;39;20314;31
2023/05/02 23:39:06;;;;;;;7.30;4.33;;;;;;;11.45;63.20;100088.97;7422022;39;20269;31
2023/05/02 23:49:44;;;;;;;8.77;4.13;;;;;;;11.51;63.66;100091.06;7420033;39;21252;31
